createdAt,value
2024-05-09T00:01:51.156Z,14.50
2024-05-09T00:04:21.215Z,14.50
2024-05-09T00:06:54.192Z,14.50
2024-05-09T00:09:24.444Z,14.50
2024-05-09T00:11:54.553Z,14.40
2024-05-09T00:14:24.992Z,14.40
2024-05-09T00:16:55.007Z,14.40
2024-05-09T00:19:25.330Z,14.40
2024-05-09T00:21:58.349Z,14.40
2024-05-09T00:24:28.623Z,14.40
2024-05-09T00:26:58.562Z,14.30
2024-05-09T00:29:28.828Z,14.30
2024-05-09T00:31:58.898Z,14.30
2024-05-09T00:34:29.419Z,14.30
2024-05-09T00:37:02.404Z,14.20
2024-05-09T00:39:32.324Z,14.20
2024-05-09T00:42:02.408Z,14.20
2024-05-09T00:44:32.460Z,14.20
2024-05-09T00:47:02.828Z,14.10
2024-05-09T00:52:09.505Z,14.00
2024-05-09T00:54:39.726Z,14.00
2024-05-09T00:57:09.743Z,14.10
2024-05-09T00:59:40.091Z,14.00
2024-05-09T01:02:10.520Z,14.00
2024-05-09T01:04:40.693Z,13.90
2024-05-09T01:07:15.512Z,13.90
2024-05-09T01:09:45.530Z,13.90
2024-05-09T01:12:16.173Z,13.90
2024-05-09T01:14:46.507Z,13.90
2024-05-09T01:17:17.226Z,13.80
2024-05-09T01:19:47.761Z,13.80
2024-05-09T01:22:20.705Z,13.80
2024-05-09T01:24:53.635Z,13.80
2024-05-09T01:27:24.497Z,13.70
2024-05-09T01:29:54.459Z,13.70
2024-05-09T01:32:24.814Z,13.70
2024-05-09T01:34:55.159Z,13.70
2024-05-09T01:37:25.110Z,13.70
2024-05-09T01:39:58.026Z,13.60
2024-05-09T01:42:28.266Z,13.60
2024-05-09T01:44:58.549Z,13.60
2024-05-09T01:47:28.911Z,13.60
2024-05-09T01:49:58.982Z,13.60
2024-05-09T01:52:29.280Z,13.50
2024-05-09T01:55:05.544Z,13.50
2024-05-09T01:57:36.883Z,13.50
2024-05-09T02:00:08.040Z,13.50
2024-05-09T02:02:38.377Z,13.40
2024-05-09T02:05:09.557Z,13.40
2024-05-09T02:07:39.712Z,13.40
2024-05-09T02:10:20.149Z,13.40
2024-05-09T02:12:53.407Z,13.40
2024-05-09T02:15:23.682Z,13.40
2024-05-09T02:17:54.352Z,13.30
2024-05-09T02:20:33.534Z,13.30
2024-05-09T02:23:07.419Z,13.30
2024-05-09T02:25:40.194Z,13.30
2024-05-09T02:28:10.960Z,13.30
2024-05-09T02:30:42.290Z,13.30
2024-05-09T02:33:14.467Z,13.20
2024-05-09T02:35:45.178Z,13.20
2024-05-09T02:38:15.640Z,13.20
2024-05-09T02:40:45.676Z,13.20
2024-05-09T02:43:16.025Z,13.20
2024-05-09T02:45:43.398Z,13.10
2024-05-09T02:48:14.531Z,13.10
2024-05-09T02:50:44.067Z,13.10
2024-05-09T02:53:14.925Z,13.10
2024-05-09T02:55:45.077Z,13.10
2024-05-09T02:58:15.655Z,13.00
2024-05-09T03:00:43.270Z,13.00
2024-05-09T03:03:15.596Z,13.00
2024-05-09T03:05:44.130Z,13.00
2024-05-09T03:08:14.607Z,13.00
2024-05-09T03:10:45.102Z,13.00
2024-05-09T03:13:16.802Z,12.90
2024-05-09T03:15:44.622Z,12.90
2024-05-09T03:18:14.839Z,12.90
2024-05-09T03:20:44.704Z,12.90
2024-05-09T03:23:15.568Z,12.80
2024-05-09T03:25:45.639Z,12.90
2024-05-09T03:28:15.894Z,12.90
2024-05-09T03:30:43.563Z,12.80
2024-05-09T03:33:15.683Z,12.70
2024-05-09T03:35:43.967Z,12.80
2024-05-09T03:38:14.251Z,12.80
2024-05-09T03:40:51.610Z,12.80
2024-05-09T03:43:22.045Z,12.70
2024-05-09T03:45:50.298Z,12.70
2024-05-09T03:48:20.759Z,12.70
2024-05-09T03:50:49.162Z,12.70
2024-05-09T03:53:19.284Z,12.70
2024-05-09T03:55:49.790Z,12.70
2024-05-09T03:58:19.809Z,12.60
2024-05-09T04:00:47.524Z,12.60
2024-05-09T04:03:18.637Z,12.60
2024-05-09T04:05:46.590Z,12.60
2024-05-09T04:08:17.854Z,12.60
2024-05-09T04:10:49.126Z,12.60
2024-05-09T04:13:19.407Z,12.60
2024-05-09T04:15:46.815Z,12.60
2024-05-09T04:18:17.146Z,12.60
2024-05-09T04:20:44.583Z,12.50
2024-05-09T04:23:15.910Z,12.60
2024-05-09T04:25:45.439Z,12.60
2024-05-09T04:28:18.531Z,12.60
2024-05-09T04:30:45.869Z,12.50
2024-05-09T04:33:18.799Z,12.40
2024-05-09T04:35:46.980Z,12.50
2024-05-09T04:38:17.014Z,12.50
2024-05-09T04:40:44.831Z,12.50
2024-05-09T04:43:21.441Z,12.50
2024-05-09T04:45:48.802Z,12.50
2024-05-09T04:48:19.394Z,12.50
2024-05-09T04:50:47.159Z,12.50
2024-05-09T04:53:19.457Z,12.50
2024-05-09T04:55:46.912Z,12.50
2024-05-09T04:58:19.933Z,12.60
2024-05-09T05:00:47.276Z,12.60
2024-05-09T05:03:17.681Z,12.60
2024-05-09T05:05:46.187Z,12.60
2024-05-09T05:08:17.974Z,12.60
2024-05-09T05:10:47.197Z,12.60
2024-05-09T05:13:24.018Z,12.60
2024-05-09T05:15:55.598Z,12.60
2024-05-09T05:18:27.406Z,12.60
2024-05-09T05:20:56.126Z,12.60
2024-05-09T05:23:26.586Z,12.70
2024-05-09T05:25:54.855Z,12.70
2024-05-09T05:28:27.886Z,12.70
2024-05-09T05:30:55.269Z,12.70
2024-05-09T05:33:25.329Z,12.70
2024-05-09T05:35:53.097Z,12.70
2024-05-09T05:38:27.258Z,12.70
2024-05-09T05:40:56.030Z,12.70
2024-05-09T05:43:29.742Z,12.80
2024-05-09T05:45:57.092Z,12.80
2024-05-09T05:48:27.533Z,12.80
2024-05-09T05:50:55.009Z,12.80
2024-05-09T05:53:24.931Z,12.90
2024-05-09T05:55:52.396Z,12.90
2024-05-09T05:58:23.055Z,12.90
2024-05-09T06:00:54.057Z,12.90
2024-05-09T06:03:24.191Z,12.90
2024-05-09T06:05:51.858Z,12.90
2024-05-09T06:08:22.164Z,12.90
2024-05-09T06:10:49.947Z,12.90
2024-05-09T06:13:20.631Z,12.90
2024-05-09T06:15:48.222Z,13.00
2024-05-09T06:18:21.687Z,13.00
2024-05-09T06:20:49.301Z,13.00
2024-05-09T06:23:19.768Z,13.00
2024-05-09T06:25:47.182Z,13.00
2024-05-09T06:28:17.233Z,13.10
2024-05-09T06:30:44.586Z,13.10
2024-05-09T06:33:16.442Z,13.20
2024-05-09T06:35:47.215Z,13.20
2024-05-09T06:38:17.590Z,13.20
2024-05-09T06:40:45.089Z,13.30
2024-05-09T06:43:17.891Z,13.30
2024-05-09T06:45:48.169Z,13.30
2024-05-09T06:48:21.861Z,13.40
2024-05-09T06:50:52.729Z,13.40
2024-05-09T06:53:25.150Z,13.40
2024-05-09T06:55:52.907Z,13.40
2024-05-09T06:58:23.083Z,13.50
2024-05-09T07:00:50.499Z,13.50
2024-05-09T07:03:20.657Z,13.50
2024-05-09T07:05:49.488Z,13.60
2024-05-09T07:08:23.000Z,13.60
2024-05-09T07:10:50.502Z,13.60
2024-05-09T07:13:20.919Z,13.60
2024-05-09T07:15:48.542Z,13.70
2024-05-09T07:18:21.139Z,13.70
2024-05-09T07:20:50.476Z,13.80
2024-05-09T07:23:23.492Z,13.80
2024-05-09T07:25:51.040Z,13.80
2024-05-09T07:28:23.674Z,13.90
2024-05-09T07:30:53.901Z,13.90
2024-05-09T07:33:23.577Z,14.00
2024-05-09T07:35:54.463Z,14.10
2024-05-09T07:38:24.856Z,14.10
2024-05-09T07:40:54.857Z,14.10
2024-05-09T07:43:22.291Z,14.20
2024-05-09T07:47:03.942Z,14.20
2024-05-09T07:53:59.875Z,14.40
2024-05-09T07:56:31.866Z,14.50
2024-05-09T07:58:59.681Z,14.50
2024-05-09T08:01:32.690Z,14.50
2024-05-09T08:04:00.075Z,14.60
2024-05-09T08:06:30.445Z,14.60
2024-05-09T08:09:02.779Z,14.70
2024-05-09T08:11:35.934Z,14.70
2024-05-09T08:14:03.266Z,14.80
2024-05-09T08:16:36.296Z,14.80
2024-05-09T08:19:04.129Z,14.80
2024-05-09T08:21:34.167Z,14.90
2024-05-09T08:24:01.741Z,15.00
2024-05-09T08:26:31.984Z,15.00
2024-05-09T08:28:59.339Z,15.00
2024-05-09T08:31:29.671Z,15.10
2024-05-09T08:34:00.100Z,15.20
2024-05-09T08:36:30.189Z,15.20
2024-05-09T08:38:57.843Z,15.30
2024-05-09T08:41:28.419Z,15.40
2024-05-09T08:43:55.716Z,15.40
2024-05-09T08:46:26.259Z,15.40
2024-05-09T08:49:00.207Z,15.50
2024-05-09T08:51:30.732Z,15.60
2024-05-09T08:53:58.343Z,15.60
2024-05-09T08:56:30.875Z,15.70
2024-05-09T08:59:02.239Z,15.70
2024-05-09T09:01:35.427Z,15.80
2024-05-09T09:04:07.152Z,15.80
2024-05-09T09:06:38.371Z,15.90
2024-05-09T09:09:06.494Z,15.90
2024-05-09T09:11:36.470Z,16.00
2024-05-09T09:14:04.036Z,16.00
2024-05-09T09:16:37.157Z,16.10
2024-05-09T09:19:07.689Z,16.10
2024-05-09T09:21:37.776Z,16.20
2024-05-09T09:24:06.986Z,16.20
2024-05-09T09:26:38.023Z,16.30
2024-05-09T09:29:05.617Z,16.30
2024-05-09T09:31:37.423Z,16.40
2024-05-09T09:34:10.531Z,16.50
2024-05-09T09:36:43.891Z,16.60
2024-05-09T09:39:13.325Z,16.60
2024-05-09T09:41:46.556Z,16.70
2024-05-09T09:44:14.253Z,16.70
2024-05-09T09:46:44.817Z,16.80
2024-05-09T09:49:16.011Z,16.90
2024-05-09T09:51:47.800Z,17.00
2024-05-09T09:54:15.274Z,17.00
2024-05-09T09:56:48.865Z,17.00
2024-05-09T09:59:16.586Z,17.10
2024-05-09T10:01:47.745Z,17.20
2024-05-09T10:04:19.496Z,17.20
2024-05-09T10:06:53.835Z,17.30
2024-05-09T10:09:24.908Z,17.40
2024-05-09T10:11:59.684Z,17.50
2024-05-09T10:14:33.529Z,17.60
2024-05-09T10:17:05.343Z,17.70
2024-05-09T10:19:38.006Z,17.80
2024-05-09T10:22:06.386Z,17.80
2024-05-09T10:24:50.402Z,17.90
2024-05-09T10:27:26.428Z,18.00
2024-05-09T10:29:56.935Z,18.10
2024-05-09T10:32:24.870Z,18.20
2024-05-09T10:35:12.014Z,18.30
2024-05-09T10:37:39.518Z,18.30
2024-05-09T10:40:17.261Z,18.40
2024-05-09T10:42:50.178Z,18.40
2024-05-09T10:45:21.169Z,18.50
2024-05-09T10:47:48.707Z,18.60
2024-05-09T10:50:28.188Z,18.70
2024-05-09T10:52:56.327Z,18.80
2024-05-09T10:55:26.615Z,18.90
2024-05-09T10:57:54.333Z,18.90
2024-05-09T11:00:30.566Z,18.90
2024-05-09T11:03:03.310Z,18.90
2024-05-09T11:05:36.843Z,19.00
2024-05-09T11:08:04.899Z,19.10
2024-05-09T11:10:35.769Z,19.10
2024-05-09T11:13:03.220Z,19.20
2024-05-09T11:15:41.356Z,19.20
2024-05-09T11:18:23.614Z,19.30
2024-05-09T11:20:58.433Z,19.40
2024-05-09T11:23:27.939Z,19.60
2024-05-09T11:25:59.792Z,19.70
2024-05-09T11:28:29.123Z,19.80
2024-05-09T11:31:09.882Z,19.90
2024-05-09T11:33:39.301Z,20.00
2024-05-09T11:36:12.256Z,20.10
2024-05-09T11:38:39.843Z,20.10
2024-05-09T11:41:10.164Z,20.10
2024-05-09T11:43:37.747Z,20.20
2024-05-09T11:46:08.060Z,20.30
2024-05-09T11:51:15.559Z,20.40
2024-05-09T11:53:42.819Z,20.60
2024-05-09T11:56:15.757Z,20.70
2024-05-09T11:58:43.456Z,20.80
2024-05-09T12:01:13.722Z,20.90
2024-05-09T12:03:41.151Z,21.10
2024-05-09T12:06:11.185Z,21.20
2024-05-09T12:08:41.883Z,21.40
2024-05-09T12:11:14.342Z,21.50
2024-05-09T12:13:41.638Z,21.60
2024-05-09T12:16:11.831Z,21.70
2024-05-09T12:18:39.335Z,21.80
2024-05-09T12:21:09.302Z,21.90
2024-05-09T12:23:36.870Z,22.00
2024-05-09T12:26:10.238Z,22.10
2024-05-09T12:28:37.889Z,22.30
2024-05-09T12:31:08.069Z,22.30
2024-05-09T12:33:35.702Z,22.50
2024-05-09T12:36:05.699Z,22.60
2024-05-09T12:38:33.283Z,22.70
2024-05-09T12:41:03.172Z,22.80
2024-05-09T12:43:33.578Z,22.90
2024-05-09T12:46:03.571Z,23.00
2024-05-09T12:48:31.321Z,23.10
2024-05-09T12:51:01.294Z,23.20
2024-05-09T12:53:28.878Z,23.30
2024-05-09T12:56:02.256Z,23.40
2024-05-09T12:58:33.893Z,23.50
2024-05-09T13:01:03.849Z,23.60
2024-05-09T13:03:32.226Z,23.70
2024-05-09T13:06:02.274Z,23.80
2024-05-09T13:08:29.952Z,23.90
2024-05-09T13:11:00.019Z,24.00
2024-05-09T13:13:29.419Z,24.10
2024-05-09T13:16:02.438Z,24.20
2024-05-09T13:18:29.878Z,24.30
2024-05-09T13:20:59.910Z,24.50
2024-05-09T13:23:27.159Z,24.50
2024-05-09T13:25:57.247Z,24.60
2024-05-09T13:28:24.722Z,24.70
2024-05-09T13:30:55.158Z,24.70
2024-05-09T13:33:25.343Z,24.80
2024-05-09T13:35:55.395Z,24.80
2024-05-09T13:38:22.818Z,25.00
2024-05-09T13:40:53.143Z,25.00
2024-05-09T13:43:22.280Z,25.10
2024-05-09T13:45:54.547Z,25.20
2024-05-09T13:48:24.582Z,25.30
2024-05-09T13:50:55.000Z,25.40
2024-05-09T13:53:22.228Z,25.50
2024-05-09T13:55:52.622Z,25.60
2024-05-09T13:58:20.046Z,25.60
2024-05-09T14:00:50.368Z,25.70
2024-05-09T14:03:20.104Z,25.80
2024-05-09T14:05:53.642Z,25.90
2024-05-09T14:08:22.707Z,26.00
2024-05-09T14:10:54.084Z,26.10
2024-05-09T14:13:21.906Z,26.20
2024-05-09T14:15:52.379Z,26.30
2024-05-09T14:18:20.290Z,26.30
2024-05-09T14:20:50.256Z,26.40
2024-05-09T14:23:20.526Z,26.50
2024-05-09T14:25:53.089Z,26.60
2024-05-09T14:28:21.027Z,26.70
2024-05-09T14:30:51.273Z,26.80
2024-05-09T14:33:23.852Z,26.90
2024-05-09T14:35:53.964Z,27.00
2024-05-09T14:38:24.239Z,27.10
2024-05-09T14:40:54.371Z,27.20
2024-05-09T14:43:21.790Z,27.30
2024-05-09T14:45:52.025Z,27.40
2024-05-09T14:48:20.201Z,27.50
2024-05-09T14:50:50.893Z,27.60
2024-05-09T14:53:18.176Z,27.70
2024-05-09T14:55:51.072Z,27.80
2024-05-09T14:58:20.140Z,27.80
2024-05-09T15:00:51.747Z,27.90
2024-05-09T15:03:20.756Z,28.00
2024-05-09T15:05:52.258Z,28.00
2024-05-09T15:08:20.104Z,28.10
2024-05-09T15:10:53.214Z,28.20
2024-05-09T15:13:21.346Z,28.30
2024-05-09T15:15:51.660Z,28.30
2024-05-09T15:18:19.650Z,28.30
2024-05-09T15:20:49.898Z,28.40
2024-05-09T15:23:17.560Z,28.50
2024-05-09T15:25:47.544Z,28.50
2024-05-09T15:28:18.200Z,28.60
2024-05-09T15:30:48.855Z,28.60
2024-05-09T15:33:16.388Z,28.60
2024-05-09T15:35:47.133Z,28.70
2024-05-09T15:38:16.031Z,28.70
2024-05-09T15:40:46.234Z,28.80
2024-05-09T15:43:16.850Z,28.80
2024-05-09T15:45:47.211Z,28.90
2024-05-09T15:48:15.042Z,28.90
2024-05-09T15:50:45.303Z,29.00
2024-05-09T15:53:13.642Z,29.00
2024-05-09T15:55:44.648Z,29.00
2024-05-09T15:58:12.578Z,29.00
2024-05-09T16:00:47.871Z,29.00
2024-05-09T16:03:16.907Z,29.00
2024-05-09T16:05:48.411Z,29.00
2024-05-09T16:08:16.494Z,29.00
2024-05-09T16:10:48.256Z,29.00
2024-05-09T16:13:16.885Z,28.90
2024-05-09T16:15:50.472Z,28.80
2024-05-09T16:18:18.147Z,28.70
2024-05-09T16:20:50.209Z,28.60
2024-05-09T16:23:18.058Z,28.50
2024-05-09T16:25:48.750Z,28.40
2024-05-09T16:28:16.741Z,28.30
2024-05-09T16:30:50.359Z,28.20
2024-05-09T16:33:21.002Z,28.10
2024-05-09T16:35:51.167Z,28.00
2024-05-09T16:38:19.208Z,27.90
2024-05-09T16:40:50.886Z,27.80
2024-05-09T16:43:18.980Z,27.70
2024-05-09T16:45:51.733Z,27.60
2024-05-09T16:48:19.487Z,27.50
2024-05-09T16:50:49.763Z,27.40
2024-05-09T16:53:17.042Z,27.20
2024-05-09T16:55:47.102Z,27.10
2024-05-09T16:58:14.689Z,27.00
2024-05-09T17:00:44.743Z,26.90
2024-05-09T17:03:16.177Z,26.80
2024-05-09T17:05:48.304Z,26.60
2024-05-09T17:08:17.044Z,26.50
2024-05-09T17:10:49.207Z,26.40
2024-05-09T17:13:20.610Z,26.30
2024-05-09T17:15:51.588Z,26.10
2024-05-09T17:18:24.326Z,26.00
2024-05-09T17:20:52.829Z,25.80
2024-05-09T17:23:22.807Z,25.70
2024-05-09T17:25:50.484Z,25.60
2024-05-09T17:28:20.720Z,25.50
2024-05-09T17:30:48.711Z,25.40
2024-05-09T17:33:18.953Z,25.40
2024-05-09T17:35:52.183Z,25.20
2024-05-09T17:38:23.404Z,25.20
2024-05-09T17:40:52.501Z,25.00
2024-05-09T17:43:22.648Z,25.00
2024-05-09T17:45:50.065Z,24.90
2024-05-09T17:48:20.940Z,24.80
2024-05-09T17:50:51.799Z,24.70
2024-05-09T17:53:22.281Z,24.60
2024-05-09T17:55:49.602Z,24.40
2024-05-09T17:58:19.574Z,24.30
2024-05-09T18:00:47.154Z,24.20
2024-05-09T18:03:17.562Z,24.10
2024-05-09T18:05:46.326Z,24.00
2024-05-09T18:08:19.103Z,23.90
2024-05-09T18:10:46.747Z,23.80
2024-05-09T18:13:16.969Z,23.60
2024-05-09T18:15:45.340Z,23.50
2024-05-09T18:18:16.461Z,22.90
2024-05-09T18:20:45.845Z,23.20
2024-05-09T18:23:20.352Z,23.10
2024-05-09T18:25:48.166Z,23.00
2024-05-09T18:28:18.880Z,22.90
2024-05-09T18:30:46.525Z,22.80
2024-05-09T18:33:16.941Z,22.70
2024-05-09T18:35:46.896Z,22.60
2024-05-09T18:38:27.737Z,22.60
2024-05-09T18:40:55.690Z,22.50
2024-05-09T18:43:31.162Z,22.50
2024-05-09T18:46:07.002Z,22.40
2024-05-09T18:48:37.615Z,22.30
2024-05-09T18:51:05.733Z,22.30
2024-05-09T18:53:38.930Z,22.20
2024-05-09T18:56:07.548Z,22.20
2024-05-09T18:58:37.752Z,22.10
2024-05-09T19:01:05.644Z,22.00
2024-05-09T19:03:36.073Z,21.90
2024-05-09T19:06:04.076Z,21.90
2024-05-09T19:08:34.103Z,21.80
2024-05-09T19:11:04.167Z,21.80
2024-05-09T19:13:34.409Z,21.70
2024-05-09T19:16:01.911Z,21.70
2024-05-09T19:18:32.352Z,21.60
2024-05-09T19:21:00.113Z,21.50
2024-05-09T19:23:32.525Z,21.50
2024-05-09T19:26:00.229Z,21.40
2024-05-09T19:28:32.890Z,21.40
2024-05-09T19:31:00.262Z,21.30
2024-05-09T19:33:30.336Z,21.30
2024-05-09T19:35:57.762Z,21.20
2024-05-09T19:38:27.982Z,21.20
2024-05-09T19:40:55.390Z,21.10
2024-05-09T19:43:26.077Z,21.00
2024-05-09T19:45:56.229Z,21.00
2024-05-09T19:48:26.661Z,20.90
2024-05-09T19:50:54.036Z,20.90
2024-05-09T19:53:24.013Z,20.80
2024-05-09T19:55:51.437Z,20.80
2024-05-09T19:58:21.360Z,20.70
2024-05-09T20:00:50.209Z,20.70
2024-05-09T20:03:22.897Z,20.60
2024-05-09T20:05:50.432Z,20.60
2024-05-09T20:08:20.376Z,20.50
2024-05-09T20:10:48.171Z,20.50
2024-05-09T20:13:19.303Z,20.40
2024-05-09T20:15:46.856Z,20.40
2024-05-09T20:18:17.232Z,20.30
2024-05-09T20:20:49.840Z,20.30
2024-05-09T20:23:21.644Z,20.20
2024-05-09T20:25:48.901Z,20.10
2024-05-09T20:28:19.477Z,20.10
2024-05-09T20:30:46.968Z,20.10
2024-05-09T20:33:17.018Z,20.00
2024-05-09T20:35:47.839Z,20.00
2024-05-09T20:38:17.883Z,19.90
2024-05-09T20:40:46.356Z,19.90
2024-05-09T20:43:16.466Z,19.80
2024-05-09T20:45:43.825Z,19.80
2024-05-09T20:48:14.276Z,19.70
2024-05-09T20:50:42.750Z,19.70
2024-05-09T20:53:16.529Z,19.60
2024-05-09T20:55:44.619Z,19.60
2024-05-09T20:58:15.338Z,19.60
2024-05-09T21:00:45.313Z,19.60
2024-05-09T21:03:17.664Z,19.50
2024-05-09T21:05:46.052Z,19.40
2024-05-09T21:08:19.236Z,19.40
2024-05-09T21:10:46.567Z,19.30
2024-05-09T21:13:17.137Z,19.20
2024-05-09T21:15:44.648Z,19.20
2024-05-09T21:18:14.670Z,19.20
2024-05-09T21:20:42.648Z,19.10
2024-05-09T21:23:12.705Z,19.10
2024-05-09T21:25:42.947Z,19.00
2024-05-09T21:28:14.877Z,19.00
2024-05-09T21:30:43.283Z,19.00
2024-05-09T21:33:15.449Z,18.90
2024-05-09T21:35:44.426Z,18.80
2024-05-09T21:38:15.486Z,18.80
2024-05-09T21:40:45.765Z,18.80
2024-05-09T21:43:16.153Z,18.70
2024-05-09T21:45:43.758Z,18.80
2024-05-09T21:48:15.887Z,18.70
2024-05-09T21:50:44.085Z,18.70
2024-05-09T21:53:14.099Z,18.70
2024-05-09T21:55:44.709Z,18.60
2024-05-09T21:58:15.126Z,18.60
2024-05-09T22:00:45.585Z,18.50
2024-05-09T22:03:16.912Z,18.50
2024-05-09T22:05:45.288Z,18.50
2024-05-09T22:08:15.746Z,18.40
2024-05-09T22:10:46.169Z,18.40
2024-05-09T22:13:16.968Z,18.40
2024-05-09T22:15:44.711Z,18.30
2024-05-09T22:18:14.941Z,18.30
2024-05-09T22:20:45.679Z,18.20
2024-05-09T22:23:17.387Z,18.20
2024-05-09T22:25:47.530Z,18.20
2024-05-09T22:28:18.059Z,18.10
2024-05-09T22:30:47.311Z,18.10
2024-05-09T22:33:18.013Z,18.00
2024-05-09T22:35:45.502Z,18.00
2024-05-09T22:38:15.498Z,18.00
2024-05-09T22:40:48.238Z,17.90
2024-05-09T22:43:25.006Z,17.90
2024-05-09T22:45:53.194Z,17.90
2024-05-09T22:48:24.547Z,17.80
2024-05-09T22:50:52.660Z,17.80
2024-05-09T22:53:25.438Z,17.70
2024-05-09T22:55:53.158Z,17.70
2024-05-09T22:58:26.065Z,17.60
2024-05-09T23:00:53.654Z,17.60
2024-05-09T23:03:23.904Z,17.50
2024-05-09T23:05:51.614Z,17.50
2024-05-09T23:08:21.525Z,17.50
2024-05-09T23:10:49.150Z,17.40
2024-05-09T23:13:19.488Z,17.40
2024-05-09T23:15:49.590Z,17.30
2024-05-09T23:18:19.614Z,17.20
2024-05-09T23:20:47.135Z,17.20
2024-05-09T23:23:17.744Z,17.20
2024-05-09T23:25:45.423Z,17.10
2024-05-09T23:28:15.726Z,17.10
2024-05-09T23:30:46.033Z,17.10
2024-05-09T23:33:16.452Z,17.00
2024-05-09T23:35:46.404Z,17.00
2024-05-09T23:38:14.014Z,16.90
2024-05-09T23:40:44.377Z,16.90
2024-05-09T23:43:12.758Z,16.90
2024-05-09T23:45:43.465Z,16.80
2024-05-09T23:48:11.494Z,16.70
2024-05-09T23:50:44.651Z,16.70
2024-05-09T23:53:14.902Z,16.70
2024-05-09T23:55:42.569Z,16.70
2024-05-09T23:58:13.546Z,16.70
